Grant Co International Airport
KMWH : now visible

Airfield :











YOU CAN JOIN US ON...

 
LOGIN :

Register | Disclaimer

   EN    FR    IT 

 









Legend :    VFR   Marginal VFR   IFR   Intensive IFR   Very Intensive IFR
Visi :
Ceiling :
>= 8 km
>= 3000ft
5 to 8 km
1000 to 3000 ft
1500m to 5 km
500 to 1000 ft
800 to 1500m
200 to 500 ft
< 800m
< 200 ft
Symbols :   Thunderstorms  Fog  Heavy snow  Heavy precipitations  Wind > 20 kt






- Airport Elevation : 1189 ft


KMWH - Grant Co International

CURRENT METAR :
  • 220752Z AUTO 00000KT 10SM CLR 19/07 A2986 RMK AO2 SLP102 T01940072 403220100

EXPIRED METARs :
  • 220652Z AUTO 01005KT 10SM CLR 19/07 A2986 RMK AO2 SLP104 T01890072
  • 220552Z AUTO 20006KT 10SM CLR 26/07 A2985 RMK AO2 SLP099 T02610067 10322 20250 51006
  • 220452Z 18005KT 10SM CLR 27/07 A2985 RMK AO2 SLP099 T02670067
  • 220352Z 17005KT 10SM CLR 27/06 A2984 RMK AO2 SLP094 T02670061

TAF KMWH
Valid from the 22 at 06:00 until the 23 at 06:00 UTC


220520Z 2206/2306 36005KT P6SM FEW150 SCT200
FM221800 19008KT P6SM SCT150 BKN200
FM230400 25007KT P6SM FEW150
KZSE FIR / North America



MET'MAP, your aeronautical weather chart ! - Copyright ORBIFLY December 2007 - Disclaimer

ORBIFLY MET'MAP TEAM :

Programming & Development : Alexandra Zaïnal
Original concept : Baudouin d'Aumeries
Technical & hardware support : Manuel Goepfert
Assistance : Marc-Olivier Méhu




SOURCES & CREDITS :

   NOAA       Earth
Advisory